Time;durP1;ratioP1;P1;durP2;ratioP2;P2;SDS_P1;SDS_P2;PMS_P1;PMS_P2;Temp;Humidity;BMP_temperature;BMP_pressure;BME280_temperature;BME280_humidity;BME280_pressure;Samples;Min_cycle;Max_cycle;Signal;HPM_P1;HPM_P2
2023/07/22 00:00:15;;;;;;;9.27;3.67;;;;;;;20.97;60.21;100165.03;5045111;28;20029;-81
2023/07/22 00:02:41;;;;;;;7.30;3.63;;;;;;;20.93;60.36;100165.19;5043900;28;20082;-80
2023/07/22 00:05:08;;;;;;;8.15;3.80;;;;;;;20.91;60.06;100161.72;5043396;28;20059;-80
2023/07/22 00:07:33;;;;;;;8.57;3.47;;;;;;;20.94;59.95;100156.22;5039683;28;20048;-80
2023/07/22 00:09:59;;;;;;;7.75;3.50;;;;;;;21.00;59.99;100143.44;5056009;28;20032;-80
2023/07/22 00:12:25;;;;;;;7.15;3.58;;;;;;;21.05;60.22;100138.72;5080098;28;20403;-80
2023/07/22 00:14:51;;;;;;;7.97;3.37;;;;;;;21.05;60.21;100146.75;5045703;28;20486;-80
2023/07/22 00:17:17;;;;;;;6.88;3.47;;;;;;;21.00;59.95;100155.03;5050610;28;20066;-80
2023/07/22 00:19:42;;;;;;;6.77;3.30;;;;;;;20.97;60.18;100159.66;5040517;28;20041;-80
2023/07/22 00:22:08;;;;;;;6.97;3.23;;;;;;;20.97;60.45;100160.53;5038232;28;20112;-80
2023/07/22 00:24:33;;;;;;;7.87;3.30;;;;;;;20.98;60.18;100153.38;5045234;28;20260;-80
2023/07/22 00:26:59;;;;;;;6.83;3.03;;;;;;;20.94;60.65;100144.63;5038127;28;20029;-81
2023/07/22 00:29:24;;;;;;;8.02;2.75;;;;;;;20.96;60.50;100152.59;5037767;28;20049;-80
2023/07/22 00:31:49;;;;;;;8.33;3.50;;;;;;;20.96;60.80;100136.53;5038987;28;20087;-80
2023/07/22 00:34:15;;;;;;;7.70;3.30;;;;;;;20.96;60.97;100132.03;5055217;28;20071;-80
2023/07/22 00:36:40;;;;;;;8.57;2.90;;;;;;;20.95;60.97;100119.56;5058750;28;20085;-80
2023/07/22 00:39:06;;;;;;;9.07;2.67;;;;;;;20.98;60.62;100113.22;5058825;28;20029;-81
2023/07/22 00:41:31;;;;;;;6.80;2.80;;;;;;;21.02;60.43;100101.41;5053806;28;20029;-80
2023/07/22 00:43:57;;;;;;;6.67;3.00;;;;;;;21.00;60.79;100100.63;5058684;28;20037;-80
2023/07/22 00:46:22;;;;;;;6.75;2.70;;;;;;;20.98;60.81;100094.47;5059072;28;20041;-80
2023/07/22 00:48:49;;;;;;;8.87;2.90;;;;;;;20.98;60.98;100075.75;5054979;28;20069;-80
2023/07/22 00:51:15;;;;;;;5.28;2.60;;;;;;;20.94;61.42;100075.03;5045354;28;20025;-80
2023/07/22 00:53:40;;;;;;;8.23;2.70;;;;;;;20.93;60.96;100058.09;5040507;28;20033;-80
2023/07/22 00:56:06;;;;;;;6.77;2.77;;;;;;;20.97;60.68;100037.38;5038194;28;20560;-80
2023/07/22 00:58:32;;;;;;;6.63;2.45;;;;;;;21.03;61.06;100030.84;5051021;28;20568;-80
2023/07/22 01:00:58;;;;;;;6.28;2.50;;;;;;;21.08;60.39;100026.13;5038680;28;20047;-81
2023/07/22 01:03:24;;;;;;;6.10;2.40;;;;;;;21.15;60.61;100024.00;5038426;28;20489;-80
2023/07/22 01:05:51;;;;;;;7.53;2.80;;;;;;;21.20;60.10;100028.19;5037381;28;20033;-80
2023/07/22 01:08:17;;;;;;;6.43;3.00;;;;;;;21.21;60.42;100043.28;5039026;28;20029;-81
2023/07/22 01:10:42;;;;;;;7.05;3.05;;;;;;;21.18;60.46;100056.84;5066087;28;20611;-80
2023/07/22 01:13:08;;;;;;;6.77;2.50;;;;;;;21.16;60.61;100052.50;5045226;28;20033;-80
2023/07/22 01:15:33;;;;;;;8.67;3.10;;;;;;;21.10;60.74;100043.00;5045250;28;20053;-80
2023/07/22 01:18:01;;;;;;;7.18;2.85;;;;;;;21.06;60.73;100039.59;5049894;28;20075;-80
2023/07/22 01:20:29;;;;;;;7.37;2.80;;;;;;;21.07;60.60;100051.16;5038174;28;20390;-80
2023/07/22 01:22:54;;;;;;;6.93;3.25;;;;;;;21.04;60.92;100059.34;5037987;28;20104;-80
2023/07/22 01:25:21;;;;;;;6.72;3.08;;;;;;;20.97;61.44;100088.25;5045334;28;20068;-80
2023/07/22 01:27:50;;;;;;;7.60;3.10;;;;;;;20.93;61.35;100103.63;5038034;28;20034;-80
2023/07/22 01:30:15;;;;;;;7.68;3.40;;;;;;;20.92;61.06;100085.81;5043940;28;20043;-80
2023/07/22 01:32:41;;;;;;;7.10;3.13;;;;;;;20.88;61.32;100096.75;5056306;28;20452;-80
2023/07/22 01:35:07;;;;;;;8.07;3.70;;;;;;;20.80;61.60;100094.44;5046914;28;20284;-80
2023/07/22 01:37:33;;;;;;;8.18;3.42;;;;;;;20.78;61.71;100096.31;5038059;28;20109;-80
2023/07/22 01:39:59;;;;;;;9.97;3.40;;;;;;;20.77;61.55;100100.81;5039955;28;20056;-80
2023/07/22 01:42:24;;;;;;;8.38;3.60;;;;;;;20.79;61.80;100103.38;5053983;28;20091;-80
2023/07/22 01:44:50;;;;;;;8.20;3.37;;;;;;;20.80;61.54;100070.38;5057937;28;20036;-81
2023/07/22 01:47:16;;;;;;;7.93;3.30;;;;;;;20.76;61.26;100033.97;5057608;28;20100;-80
2023/07/22 01:49:41;;;;;;;8.03;3.60;;;;;;;20.71;61.84;100019.97;5049826;28;20044;-80
2023/07/22 01:52:07;;;;;;;8.40;3.40;;;;;;;20.72;61.88;100032.41;5051267;28;20032;-80
2023/07/22 01:54:32;;;;;;;6.33;3.00;;;;;;;20.69;61.51;100043.25;5040159;28;20275;-80
2023/07/22 01:56:58;;;;;;;9.93;3.23;;;;;;;20.65;61.63;100043.41;5044124;28;20099;-81
2023/07/22 01:59:23;;;;;;;8.10;3.42;;;;;;;20.62;61.93;100056.94;5050358;28;20033;-80
2023/07/22 02:01:49;;;;;;;6.90;3.20;;;;;;;20.59;61.90;100049.03;5038581;28;20037;-80
2023/07/22 02:04:14;;;;;;;5.97;2.60;;;;;;;20.58;62.14;100033.94;5037229;28;20108;-80
2023/07/22 02:06:39;;;;;;;7.13;2.87;;;;;;;20.59;61.68;100043.69;5035730;28;20025;-80
2023/07/22 02:09:08;;;;;;;8.82;3.05;;;;;;;20.53;61.90;100054.72;5044687;28;20029;-80
2023/07/22 02:11:36;;;;;;;11.80;3.63;;;;;;;20.48;62.42;100051.41;5065044;28;20063;-80
2023/07/22 02:14:02;;;;;;;8.27;3.72;;;;;;;20.46;62.30;100042.59;5037120;28;20440;-80
2023/07/22 02:16:27;;;;;;;6.70;3.10;;;;;;;20.43;62.39;100042.75;5046671;28;20120;-80
2023/07/22 02:18:52;;;;;;;6.47;2.90;;;;;;;20.40;61.98;100043.75;5044246;28;20021;-80
2023/07/22 02:21:18;;;;;;;7.17;2.90;;;;;;;20.35;62.03;100043.97;5041232;28;20104;-80
2023/07/22 02:23:43;;;;;;;6.70;2.97;;;;;;;20.31;62.33;100044.19;5050353;28;20473;-80
2023/07/22 02:26:08;;;;;;;6.50;2.90;;;;;;;20.22;62.39;100053.53;5043626;28;20031;-80
2023/07/22 02:28:34;;;;;;;7.90;3.10;;;;;;;20.15;62.64;100060.97;5056959;28;20032;-80
2023/07/22 02:31:06;;;;;;;5.93;2.60;;;;;;;20.08;62.85;100065.72;5056735;28;20039;-80
2023/07/22 02:33:31;;;;;;;7.03;2.75;;;;;;;20.05;63.16;100063.22;5055548;28;20043;-80
2023/07/22 02:35:57;;;;;;;8.77;3.00;;;;;;;20.03;63.02;100066.91;5038087;28;20485;-80
2023/07/22 02:38:22;;;;;;;7.47;2.53;;;;;;;20.03;63.03;100072.25;5036920;28;20029;-80
2023/07/22 02:40:47;;;;;;;8.73;2.60;;;;;;;20.00;62.96;100073.25;5043613;28;20082;-80
2023/07/22 02:43:13;;;;;;;6.13;2.33;;;;;;;19.96;63.17;100071.66;5056559;28;20734;-80
2023/07/22 02:45:39;;;;;;;7.88;2.60;;;;;;;19.92;63.36;100080.78;5056432;28;20025;-80
2023/07/22 02:48:04;;;;;;;7.57;2.30;;;;;;;19.89;63.57;100075.50;5055604;28;20033;-80
2023/07/22 02:50:31;;;;;;;6.95;2.88;;;;;;;19.89;63.08;100088.88;5039202;28;20032;-80
2023/07/22 02:52:56;;;;;;;6.60;2.92;;;;;;;19.89;63.41;100091.53;5044452;28;20033;-80
2023/07/22 02:55:21;;;;;;;6.20;2.50;;;;;;;19.85;63.38;100097.97;5036498;28;20371;-80
2023/07/22 02:57:47;;;;;;;7.77;2.70;;;;;;;19.80;63.34;100098.19;5046322;28;20079;-80
2023/07/22 03:00:23;;;;;;;7.53;2.95;;;;;;;19.75;63.77;100098.41;5038750;28;20071;-79
2023/07/22 03:02:50;;;;;;;9.90;2.60;;;;;;;19.72;63.75;100100.31;5035375;28;20033;-80
2023/07/22 03:05:16;;;;;;;8.37;2.60;;;;;;;19.71;63.70;100098.59;5036236;28;20085;-80
2023/07/22 03:07:41;;;;;;;7.95;2.53;;;;;;;19.73;63.58;100094.94;5036597;28;20030;-80
2023/07/22 03:10:07;;;;;;;7.40;2.73;;;;;;;19.72;63.45;100101.22;5053097;28;20033;-80
2023/07/22 03:12:34;;;;;;;5.43;2.53;;;;;;;19.70;64.04;100107.53;5050242;28;20283;-80
2023/07/22 03:14:59;;;;;;;6.97;2.80;;;;;;;19.63;64.03;100112.28;5038611;28;20026;-80
2023/07/22 03:17:25;;;;;;;5.70;2.60;;;;;;;19.56;64.10;100111.72;5047861;28;20039;-80
2023/07/22 03:19:50;;;;;;;7.50;2.40;;;;;;;19.51;64.30;100113.69;5037346;28;20025;-80
2023/07/22 03:22:17;;;;;;;7.72;2.45;;;;;;;19.47;64.25;100117.44;5039635;28;20028;-80
2023/07/22 03:24:45;;;;;;;5.72;2.40;;;;;;;19.40;64.41;100122.16;5048745;28;20029;-80
2023/07/22 03:27:12;;;;;;;7.03;2.78;;;;;;;19.29;64.95;100119.09;5036484;28;20036;-79
2023/07/22 03:29:38;;;;;;;7.80;2.47;;;;;;;19.19;65.10;100124.84;5039437;28;20556;-80
2023/07/22 03:32:04;;;;;;;6.07;2.60;;;;;;;19.17;64.82;100132.06;5038764;28;20489;-80
2023/07/22 03:34:31;;;;;;;6.22;2.38;;;;;;;19.18;64.97;100133.78;5051828;28;20039;-80
2023/07/22 03:36:57;;;;;;;8.50;2.58;;;;;;;19.18;65.00;100136.47;5040123;28;20033;-80
2023/07/22 03:39:22;;;;;;;7.72;2.28;;;;;;;19.20;65.00;100141.72;5040414;28;20456;-80
2023/07/22 03:41:48;;;;;;;7.13;2.60;;;;;;;19.20;64.63;100136.38;5053528;28;20062;-80
2023/07/22 03:44:14;;;;;;;5.90;2.40;;;;;;;19.15;65.08;100141.91;5059913;28;20067;-80
2023/07/22 03:46:40;;;;;;;6.40;2.30;;;;;;;19.06;65.18;100135.19;5063575;28;20029;-81
2023/07/22 03:49:05;;;;;;;7.57;2.65;;;;;;;19.01;65.22;100141.63;5057698;28;20092;-79
2023/07/22 03:51:31;;;;;;;5.60;2.60;;;;;;;18.98;65.22;100147.94;5052766;28;20394;-81
2023/07/22 03:53:57;;;;;;;7.40;2.30;;;;;;;18.98;65.26;100147.94;5044291;28;20054;-80
2023/07/22 03:56:23;;;;;;;5.22;2.30;;;;;;;18.99;65.36;100147.00;5043357;28;20082;-81
2023/07/22 03:58:49;;;;;;;8.32;2.70;;;;;;;18.96;65.47;100155.13;5052383;28;20033;-80
2023/07/22 04:01:15;;;;;;;6.28;2.50;;;;;;;18.92;65.46;100157.03;5038362;28;20025;-80
2023/07/22 04:03:40;;;;;;;7.37;2.67;;;;;;;18.92;65.21;100157.03;5038471;28;20502;-80
2023/07/22 04:06:06;;;;;;;7.07;2.20;;;;;;;18.88;65.64;100157.25;5039424;28;20540;-79
2023/07/22 04:08:31;;;;;;;7.10;2.60;;;;;;;18.83;65.65;100156.56;5042137;28;20029;-80
2023/07/22 04:10:57;;;;;;;5.32;2.10;;;;;;;18.82;65.72;100158.34;5068910;28;20520;-79
2023/07/22 04:13:24;;;;;;;6.10;2.20;;;;;;;18.84;65.45;100156.47;5041401;28;20090;-80
2023/07/22 04:15:50;;;;;;;7.63;2.72;;;;;;;18.84;65.62;100161.81;5048484;28;20025;-79
2023/07/22 04:18:17;;;;;;;7.68;2.33;;;;;;;18.85;65.30;100160.88;5050596;28;20619;-80
2023/07/22 04:20:42;;;;;;;6.30;2.47;;;;;;;18.84;65.45;100175.16;5059206;28;20095;-80
2023/07/22 04:23:08;;;;;;;8.38;2.45;;;;;;;18.77;65.69;100165.66;5059127;28;20060;-79
2023/07/22 04:25:41;;;;;;;7.00;2.70;;;;;;;18.73;65.93;100172.91;5046995;28;20025;-79
2023/07/22 04:28:08;;;;;;;7.13;2.60;;;;;;;18.71;65.85;100181.94;5037956;28;20029;-79
2023/07/22 04:30:34;;;;;;;7.80;2.33;;;;;;;18.72;65.88;100183.66;5039098;28;20034;-79
2023/07/22 04:32:59;;;;;;;8.23;2.88;;;;;;;18.69;65.98;100181.09;5043777;28;20043;-79
2023/07/22 04:35:24;;;;;;;6.80;2.43;;;;;;;18.68;65.97;100187.34;5045819;28;20025;-79
2023/07/22 04:37:50;;;;;;;7.90;2.60;;;;;;;18.70;65.78;100190.84;5038860;28;20113;-79
2023/07/22 04:40:16;;;;;;;7.57;2.70;;;;;;;18.71;65.99;100192.59;5041041;28;20268;-79
2023/07/22 04:42:42;;;;;;;6.28;2.15;;;;;;;18.68;65.96;100187.34;5058986;28;20028;-79
2023/07/22 04:45:12;;;;;;;6.47;2.40;;;;;;;18.67;66.09;100190.94;5058690;28;20025;-79
2023/07/22 04:47:38;;;;;;;6.10;2.63;;;;;;;18.67;66.12;100186.50;5057462;28;20016;-79
2023/07/22 04:50:09;;;;;;;6.30;2.45;;;;;;;18.67;66.39;100191.84;5044570;28;20389;-79
2023/07/22 04:52:34;;;;;;;8.00;2.58;;;;;;;18.68;66.28;100192.69;5048649;28;20559;-80
2023/07/22 04:55:00;;;;;;;6.93;2.30;;;;;;;18.70;66.12;100191.72;5038637;28;20120;-80
2023/07/22 04:57:25;;;;;;;9.43;2.63;;;;;;;18.73;66.18;100188.06;5045262;28;20060;-79
2023/07/22 04:59:50;;;;;;;6.13;2.30;;;;;;;18.74;66.24;100193.31;5043935;28;20044;-79
2023/07/22 05:02:16;;;;;;;5.93;2.23;;;;;;;18.77;65.92;100181.69;5038772;28;20079;-79
2023/07/22 05:04:41;;;;;;;5.07;2.30;;;;;;;18.85;66.01;100192.06;5038372;28;20468;-79
2023/07/22 05:07:07;;;;;;;6.63;2.20;;;;;;;18.89;65.92;100186.50;5038664;28;20029;-79
2023/07/22 05:09:33;;;;;;;5.33;2.13;;;;;;;18.93;65.41;100185.47;5048585;28;20025;-80
2023/07/22 05:11:58;;;;;;;6.30;2.10;;;;;;;18.97;65.32;100188.03;5062173;28;20775;-80
2023/07/22 05:14:24;;;;;;;5.93;2.40;;;;;;;18.97;65.37;100190.69;5038674;28;20394;-79
2023/07/22 05:16:49;;;;;;;5.83;2.00;;;;;;;18.97;65.20;100188.03;5050780;28;20036;-80
2023/07/22 05:19:14;;;;;;;5.97;2.30;;;;;;;18.98;64.76;100189.75;5045912;28;20087;-79
2023/07/22 05:21:41;;;;;;;5.83;2.00;;;;;;;19.02;64.47;100189.59;5038112;28;20025;-79
2023/07/22 05:24:06;;;;;;;6.53;2.60;;;;;;;19.06;64.54;100185.88;5045079;28;20048;-79
2023/07/22 05:26:32;;;;;;;6.30;2.17;;;;;;;19.11;64.27;100191.00;5036775;28;20025;-80
2023/07/22 05:28:57;;;;;;;6.77;2.20;;;;;;;19.15;64.13;100183.75;5038012;28;20060;-79
2023/07/22 05:31:23;;;;;;;6.10;2.20;;;;;;;19.19;63.90;100188.03;5044800;28;20044;-79
2023/07/22 05:33:48;;;;;;;5.37;1.97;;;;;;;19.26;63.99;100183.31;5058031;28;20397;-79
2023/07/22 05:36:13;;;;;;;6.47;2.30;;;;;;;19.29;63.58;100185.84;5037637;28;20280;-79
2023/07/22 05:38:39;;;;;;;6.40;2.00;;;;;;;19.32;63.44;100188.38;5037993;28;20052;-80
2023/07/22 05:41:04;;;;;;;7.27;2.40;;;;;;;19.35;63.20;100182.91;5046803;28;20087;-80
2023/07/22 05:43:30;;;;;;;6.40;2.10;;;;;;;19.37;63.07;100186.38;5060995;28;20029;-79
2023/07/22 05:45:55;;;;;;;5.57;2.08;;;;;;;19.42;63.14;100186.19;5060964;28;20032;-80
2023/07/22 05:48:21;;;;;;;4.97;2.00;;;;;;;19.48;62.94;100191.28;5060874;28;20029;-79
2023/07/22 05:50:47;;;;;;;5.68;1.90;;;;;;;19.50;62.79;100176.94;5043233;28;20054;-81
2023/07/22 05:53:13;;;;;;;6.23;1.90;;;;;;;19.51;62.36;100185.81;5048082;28;20044;-79
2023/07/22 05:55:38;;;;;;;4.43;1.83;;;;;;;19.50;62.21;100176.94;5037627;28;20030;-79
2023/07/22 05:58:08;;;;;;;7.87;2.50;;;;;;;19.47;62.15;100187.75;5049204;28;20032;-80
2023/07/22 06:00:34;;;;;;;5.90;2.22;;;;;;;19.49;62.48;100190.34;5043010;28;20025;-79
2023/07/22 06:02:59;;;;;;;5.90;1.92;;;;;;;19.50;62.11;100187.63;5057342;28;20478;-79
2023/07/22 06:05:25;;;;;;;6.00;2.27;;;;;;;19.50;62.21;100190.28;5057249;28;20629;-80
2023/07/22 06:07:50;;;;;;;5.63;2.40;;;;;;;19.52;62.00;100195.56;5043857;28;20385;-79
2023/07/22 06:10:15;;;;;;;5.43;2.00;;;;;;;19.53;62.24;100189.28;5057335;28;20434;-79
2023/07/22 06:12:41;;;;;;;8.55;2.60;;;;;;;19.51;62.13;100189.34;5059419;28;20032;-79
2023/07/22 06:15:07;;;;;;;6.10;2.43;;;;;;;19.53;61.87;100196.44;5056908;28;20521;-80
2023/07/22 06:17:32;;;;;;;6.18;2.28;;;;;;;19.55;62.27;100194.56;5050811;28;20036;-79
2023/07/22 06:19:57;;;;;;;6.23;2.30;;;;;;;19.56;62.27;100190.97;5036918;28;20544;-79
2023/07/22 06:22:23;;;;;;;6.37;2.30;;;;;;;19.59;62.07;100190.81;5037264;28;20112;-79
2023/07/22 06:24:48;;;;;;;6.37;2.73;;;;;;;19.62;62.34;100194.25;5043894;28;20060;-79
2023/07/22 06:27:13;;;;;;;6.20;2.70;;;;;;;19.68;61.89;100194.91;5037098;28;20061;-79
2023/07/22 06:29:39;;;;;;;8.20;2.30;;;;;;;19.77;61.74;100200.72;5035687;28;20029;-79
2023/07/22 06:32:05;;;;;;;6.20;2.10;;;;;;;19.89;61.56;100195.75;5036921;28;20761;-79
2023/07/22 06:34:30;;;;;;;7.53;2.30;;;;;;;20.02;61.22;100194.31;5048771;28;20048;-79
2023/07/22 06:36:55;;;;;;;6.37;2.30;;;;;;;20.12;61.02;100199.25;5036915;28;20474;-80
2023/07/22 06:39:21;;;;;;;6.83;2.40;;;;;;;20.21;61.11;100204.19;5037243;28;20029;-79
2023/07/22 06:41:46;;;;;;;6.73;2.40;;;;;;;20.39;60.26;100196.28;5051807;28;20032;-80
2023/07/22 06:44:11;;;;;;;5.60;2.10;;;;;;;20.59;60.25;100203.34;5056498;28;20060;-80
2023/07/22 06:46:37;;;;;;;7.53;2.50;;;;;;;20.84;59.42;100191.53;5056715;28;20075;-79
2023/07/22 06:49:02;;;;;;;6.28;2.30;;;;;;;21.02;59.12;100203.13;5049890;28;20113;-80
2023/07/22 06:51:28;;;;;;;4.77;2.27;;;;;;;21.14;58.35;100202.53;5043836;28;20374;-79
2023/07/22 06:53:53;;;;;;;7.33;2.50;;;;;;;21.21;58.26;100201.28;5037688;28;20108;-79
2023/07/22 06:56:18;;;;;;;6.17;2.43;;;;;;;21.30;57.70;100199.97;5036650;28;20189;-80
2023/07/22 06:58:44;;;;;;;6.13;2.35;;;;;;;21.45;57.82;100206.38;5048963;28;20528;-79
2023/07/22 07:01:09;;;;;;;5.67;2.50;;;;;;;21.49;58.14;100199.91;5036777;28;20030;-80
2023/07/22 07:03:35;;;;;;;5.43;2.30;;;;;;;21.55;58.10;100208.56;5038335;28;20029;-80
2023/07/22 07:06:01;;;;;;;6.67;2.20;;;;;;;21.52;57.79;100205.09;5040660;28;20116;-80
2023/07/22 07:08:26;;;;;;;6.70;2.35;;;;;;;21.55;58.13;100203.22;5051423;28;20496;-79
2023/07/22 07:10:52;;;;;;;5.23;2.53;;;;;;;21.54;57.91;100201.47;5061001;28;20025;-80
2023/07/22 07:13:17;;;;;;;6.13;1.93;;;;;;;21.60;57.67;100201.19;5044414;28;20537;-80
2023/07/22 07:15:48;;;;;;;7.63;2.80;;;;;;;21.65;57.38;100202.69;5048842;28;20029;-80
2023/07/22 07:18:13;;;;;;;4.80;2.50;;;;;;;21.64;57.51;100208.13;5049413;28;20039;-80
2023/07/22 07:20:38;;;;;;;7.47;2.30;;;;;;;21.70;56.91;100205.13;5038988;28;20108;-80
2023/07/22 07:23:04;;;;;;;4.37;1.80;;;;;;;21.81;56.64;100204.59;5040301;28;20025;-80
2023/07/22 07:25:29;;;;;;;5.93;2.20;;;;;;;22.02;56.45;100205.25;5046430;28;20030;-80
2023/07/22 07:27:55;;;;;;;5.47;2.25;;;;;;;22.22;56.15;100201.53;5040322;28;20066;-80
2023/07/22 07:30:21;;;;;;;6.77;2.30;;;;;;;22.47;55.59;100202.03;5040050;28;20029;-80
2023/07/22 07:32:46;;;;;;;6.47;2.40;;;;;;;22.57;55.04;100197.91;5044531;28;20028;-80
2023/07/22 07:35:11;;;;;;;5.53;2.30;;;;;;;22.59;54.70;100201.38;5048556;28;20041;-80
2023/07/22 07:37:37;;;;;;;6.37;2.47;;;;;;;22.65;54.79;100200.13;5040565;28;20029;-80
2023/07/22 07:40:03;;;;;;;6.17;2.40;;;;;;;22.84;54.74;100189.25;5044526;28;20029;-80
2023/07/22 07:42:29;;;;;;;6.63;2.60;;;;;;;22.99;54.46;100198.25;5062174;28;20032;-80
2023/07/22 07:44:54;;;;;;;6.20;2.43;;;;;;;23.10;54.26;100192.25;5063909;28;20021;-79
2023/07/22 07:47:20;;;;;;;6.05;2.45;;;;;;;23.23;53.54;100189.72;5063390;28;20027;-79
2023/07/22 07:49:45;;;;;;;6.93;2.13;;;;;;;23.35;53.42;100190.84;5052124;28;20041;-80
2023/07/22 07:52:11;;;;;;;5.27;2.10;;;;;;;23.46;52.66;100183.00;5050378;28;20167;-80
2023/07/22 07:54:36;;;;;;;6.43;2.20;;;;;;;23.53;52.79;100180.81;5039822;28;20661;-80
2023/07/22 07:57:02;;;;;;;5.70;2.33;;;;;;;23.63;52.70;100182.03;5042539;28;20105;-80
2023/07/22 07:59:27;;;;;;;6.20;2.27;;;;;;;23.75;52.44;100179.53;5047764;28;20033;-80
2023/07/22 08:01:53;;;;;;;6.50;2.17;;;;;;;23.95;51.95;100186.38;5038613;28;20025;-80
2023/07/22 08:04:18;;;;;;;5.50;2.20;;;;;;;24.18;51.46;100178.72;5037680;28;20029;-80
2023/07/22 08:06:44;;;;;;;6.20;2.30;;;;;;;24.30;51.55;100183.34;5042297;28;20052;-80
2023/07/22 08:09:10;;;;;;;6.68;2.20;;;;;;;24.47;51.42;100182.28;5050297;28;20437;-80
2023/07/22 08:11:37;;;;;;;6.38;2.10;;;;;;;24.64;50.99;100178.47;5063628;28;20037;-80
2023/07/22 08:14:03;;;;;;;6.27;2.00;;;;;;;24.84;50.43;100179.06;5037983;28;20081;-80
2023/07/22 08:16:29;;;;;;;7.97;2.22;;;;;;;24.90;49.71;100186.72;5049151;28;20515;-80
2023/07/22 08:18:54;;;;;;;5.27;1.80;;;;;;;24.82;48.92;100186.38;5048669;28;20030;-80
2023/07/22 08:21:19;;;;;;;4.10;1.67;;;;;;;24.78;48.81;100185.69;5038088;28;20091;-80
2023/07/22 08:23:46;;;;;;;4.30;1.67;;;;;;;24.79;48.40;100183.88;5042784;28;20493;-80
2023/07/22 08:26:12;;;;;;;5.30;2.07;;;;;;;24.73;48.92;100186.94;5040820;28;20021;-80
2023/07/22 08:28:38;;;;;;;5.22;1.92;;;;;;;24.75;48.89;100187.75;5038226;28;20097;-80
2023/07/22 08:31:03;;;;;;;5.83;2.00;;;;;;;24.79;49.17;100186.56;5037876;28;20034;-80
2023/07/22 08:33:29;;;;;;;6.95;1.90;;;;;;;24.94;48.94;100192.78;5046891;28;20390;-81
2023/07/22 08:35:55;;;;;;;5.83;1.87;;;;;;;25.17;48.96;100185.84;5040515;28;20450;-81
2023/07/22 08:38:20;;;;;;;7.95;1.90;;;;;;;25.38;48.84;100182.69;5044806;28;20021;-81
2023/07/22 08:40:50;;;;;;;5.10;1.80;;;;;;;25.60;48.28;100175.88;5045907;28;20022;-81
2023/07/22 08:43:15;;;;;;;4.65;2.17;;;;;;;25.78;47.32;100176.41;5046348;28;20105;-81
2023/07/22 08:45:41;;;;;;;5.00;2.08;;;;;;;25.78;47.40;100185.38;5043536;28;20053;-81
2023/07/22 08:48:09;;;;;;;6.80;2.20;;;;;;;25.76;47.55;100181.94;5048785;28;20075;-81
2023/07/22 08:51:06;;;;;;;8.02;2.30;;;;;;;25.72;47.35;100174.16;5044408;28;20033;-81
2023/07/22 08:53:34;;;;;;;7.32;1.90;;;;;;;25.86;47.09;100184.84;5040427;28;20438;-81
2023/07/22 08:56:00;;;;;;;5.33;2.10;;;;;;;25.98;47.42;100185.81;4997683;28;1151580;-77
2023/07/22 08:58:26;;;;;;;5.10;2.03;;;;;;;26.17;47.09;100179.16;5050502;28;20040;-77
2023/07/22 09:00:52;;;;;;;8.27;2.28;;;;;;;26.27;46.70;100168.53;5049815;28;20405;-77
2023/07/22 09:03:19;;;;;;;4.50;1.95;;;;;;;26.33;46.26;100174.38;5058406;28;20039;-78
2023/07/22 09:05:45;;;;;;;6.20;2.10;;;;;;;26.48;46.85;100190.44;5058551;28;20103;-78
2023/07/22 09:08:11;;;;;;;6.93;2.20;;;;;;;26.60;46.04;100178.75;5058149;28;20068;-78
2023/07/22 09:10:37;;;;;;;5.85;2.10;;;;;;;26.65;45.36;100176.59;5044726;28;20028;-77
2023/07/22 09:13:03;;;;;;;6.95;2.35;;;;;;;26.69;45.94;100185.31;5041867;28;20048;-77
2023/07/22 09:15:29;;;;;;;8.50;2.10;;;;;;;26.69;45.67;100184.47;5043382;28;20470;-77
2023/07/22 09:17:54;;;;;;;6.23;2.27;;;;;;;26.76;45.19;100181.16;5048677;28;20021;-78
2023/07/22 09:20:21;;;;;;;6.57;2.10;;;;;;;26.96;45.40;100175.31;5045296;28;20103;-78
2023/07/22 09:22:48;;;;;;;4.57;2.03;;;;;;;27.11;45.24;100173.31;5050689;28;20061;-78
2023/07/22 09:25:40;;;;;;;7.35;1.90;;;;;;;27.23;45.02;100178.63;5044804;28;20056;-77
2023/07/22 09:28:06;;;;;;;5.30;2.03;;;;;;;27.53;44.87;100175.56;5042970;28;20456;-78
2023/07/22 09:30:34;;;;;;;5.22;2.05;;;;;;;27.76;44.86;100169.22;5049503;28;20033;-78
2023/07/22 09:33:04;;;;;;;7.03;2.13;;;;;;;27.99;43.83;100173.84;5043194;28;20059;-78
2023/07/22 09:35:47;;;;;;;6.93;2.30;;;;;;;27.95;42.89;100173.22;5043100;28;20033;-78
2023/07/22 09:38:15;;;;;;;5.35;2.10;;;;;;;28.03;43.04;100175.31;5045565;28;20056;-78
2023/07/22 09:40:41;;;;;;;4.72;1.90;;;;;;;28.17;42.64;100174.25;5045970;28;20044;-78
2023/07/22 09:43:10;;;;;;;6.70;2.33;;;;;;;28.24;42.26;100164.63;5046372;28;20033;-78
2023/07/22 09:45:37;;;;;;;7.17;2.20;;;;;;;28.20;41.92;100169.41;5051217;28;20477;-76
2023/07/22 09:48:03;;;;;;;5.68;2.40;;;;;;;28.08;41.75;100165.81;5056313;28;20071;-79
2023/07/22 09:50:28;;;;;;;6.85;2.20;;;;;;;28.03;42.33;100168.03;5041063;28;20034;-77
2023/07/22 09:52:57;;;;;;;5.17;2.10;;;;;;;28.18;42.18;100162.44;5044334;28;20032;-77
2023/07/22 09:55:24;;;;;;;5.93;1.70;;;;;;;28.36;42.06;100166.38;5051669;28;20091;-77
2023/07/22 09:57:55;;;;;;;6.47;2.10;;;;;;;28.29;41.73;100173.25;5056990;28;20040;-77
2023/07/22 10:00:23;;;;;;;8.23;2.20;;;;;;;28.44;41.92;100173.00;5038634;28;20037;-77
2023/07/22 10:02:49;;;;;;;6.72;2.28;;;;;;;28.65;41.97;100175.78;5037591;28;20033;-76
2023/07/22 10:05:19;;;;;;;5.15;2.33;;;;;;;28.82;41.31;100166.31;5037044;28;20047;-76
2023/07/22 10:07:55;;;;;;;5.20;2.00;;;;;;;28.95;40.99;100166.16;5036075;28;20026;-77
2023/07/22 10:10:26;;;;;;;4.90;1.90;;;;;;;29.15;41.27;100167.19;5044394;28;20020;-77
2023/07/22 10:12:53;;;;;;;5.18;2.00;;;;;;;29.31;40.37;100165.91;5044816;28;20017;-77
2023/07/22 10:15:18;;;;;;;4.65;1.90;;;;;;;29.44;40.59;100166.59;5045792;28;20025;-78
2023/07/22 10:17:44;;;;;;;6.93;1.90;;;;;;;29.47;39.74;100162.75;5045559;28;20051;-77
2023/07/22 10:20:15;;;;;;;5.15;1.90;;;;;;;29.50;39.70;100155.19;5045175;28;20022;-77
2023/07/22 10:22:45;;;;;;;8.52;2.55;;;;;;;29.49;40.03;100152.63;5044806;28;20048;-78
2023/07/22 10:25:21;;;;;;;6.00;2.05;;;;;;;29.47;40.10;100155.47;5047280;28;20021;-76
2023/07/22 10:27:52;;;;;;;6.80;2.28;;;;;;;29.67;40.23;100160.19;5037004;28;20449;-77
2023/07/22 10:30:18;;;;;;;6.03;2.10;;;;;;;29.68;39.67;100157.31;5037635;28;20037;-79
2023/07/22 10:32:46;;;;;;;5.82;1.90;;;;;;;29.72;39.23;100153.34;5038907;28;20024;-78
2023/07/22 10:35:31;;;;;;;6.60;1.70;;;;;;;29.75;38.97;100152.22;5045850;28;20040;-77
2023/07/22 10:38:26;;;;;;;5.65;1.92;;;;;;;29.91;38.99;100158.03;5045323;28;20051;-76
2023/07/22 10:40:53;;;;;;;5.37;1.90;;;;;;;30.22;38.55;100147.19;5051185;28;20120;-78
2023/07/22 10:43:30;;;;;;;7.15;1.65;;;;;;;30.29;37.86;100150.22;5044910;28;20406;-78
2023/07/22 10:45:58;;;;;;;5.97;2.17;;;;;;;30.28;38.24;100145.81;5043751;28;20104;-79
2023/07/22 10:48:34;;;;;;;4.38;2.10;;;;;;;30.30;37.81;100146.53;5042395;28;20086;-78
2023/07/22 10:51:06;;;;;;;7.65;2.40;;;;;;;30.25;38.14;100146.03;5044091;28;20032;-79
2023/07/22 10:53:31;;;;;;;4.63;2.00;;;;;;;30.38;38.46;100140.38;5050318;28;20051;-77
2023/07/22 10:56:11;;;;;;;5.65;2.00;;;;;;;30.44;38.23;100139.84;5044498;28;20049;-78
2023/07/22 10:58:46;;;;;;;6.50;2.20;;;;;;;30.53;37.12;100140.00;5040166;28;20148;-80
2023/07/22 11:06:17;;;;;;;5.47;2.50;;;;;;;29.84;37.98;100134.28;5073866;28;20457;-76
2023/07/22 11:08:43;;;;;;;6.30;2.40;;;;;;;29.91;38.68;100136.31;5058409;28;20060;-76
2023/07/22 11:11:08;;;;;;;8.13;2.90;;;;;;;30.15;38.58;100128.88;5061689;28;20108;-78
2023/07/22 11:13:41;;;;;;;5.73;2.03;;;;;;;30.40;37.83;100122.09;5063766;28;20028;-76
2023/07/22 11:16:10;;;;;;;8.75;2.60;;;;;;;30.71;37.17;100126.59;5068158;28;20048;-79
2023/07/22 11:18:37;;;;;;;6.47;2.65;;;;;;;31.02;36.79;100119.19;5057489;28;20056;-80
2023/07/22 11:21:11;;;;;;;5.83;2.50;;;;;;;31.07;36.26;100116.06;5069246;28;20055;-78
2023/07/22 11:23:36;;;;;;;6.90;2.92;;;;;;;30.89;35.12;100113.19;5057082;28;20021;-78
2023/07/22 11:26:03;;;;;;;4.47;2.30;;;;;;;30.58;35.69;100129.56;5062636;28;20075;-74